createdAt,value
2023-06-15T00:01:49.878Z,12.50
2023-06-15T00:04:17.672Z,11.70
2023-06-15T00:06:44.958Z,13.20
2023-06-15T00:09:11.815Z,12.93
2023-06-15T00:11:38.407Z,13.53
2023-06-15T00:14:04.960Z,13.10
2023-06-15T00:16:33.026Z,13.03
2023-06-15T00:19:00.224Z,13.07
2023-06-15T00:21:27.495Z,13.23
2023-06-15T00:23:54.073Z,13.73
2023-06-15T00:26:20.912Z,12.67
2023-06-15T00:28:47.396Z,14.27
2023-06-15T00:31:13.911Z,13.77
2023-06-15T00:33:40.656Z,12.80
2023-06-15T00:36:09.478Z,13.33
2023-06-15T00:38:36.556Z,13.47
2023-06-15T00:41:03.065Z,15.27
2023-06-15T00:43:29.615Z,14.50
2023-06-15T00:45:56.164Z,13.63
2023-06-15T00:48:22.772Z,13.77
2023-06-15T00:50:49.268Z,14.27
2023-06-15T00:53:16.032Z,13.67
2023-06-15T00:55:43.054Z,13.83
2023-06-15T00:58:10.590Z,14.70
2023-06-15T01:00:38.679Z,14.13
2023-06-15T01:03:07.510Z,14.27
2023-06-15T01:05:37.859Z,13.53
2023-06-15T01:08:08.444Z,13.07
2023-06-15T01:10:35.758Z,13.47
2023-06-15T01:13:05.107Z,13.23
2023-06-15T01:15:32.045Z,13.60
2023-06-15T01:17:59.432Z,13.87
2023-06-15T01:20:41.937Z,14.23
2023-06-15T01:23:34.477Z,14.27
2023-06-15T01:26:06.618Z,14.87
2023-06-15T01:28:34.997Z,13.87
2023-06-15T01:31:01.871Z,13.73
2023-06-15T01:33:28.957Z,14.17
2023-06-15T01:35:55.447Z,14.07
2023-06-15T01:38:25.081Z,14.23
2023-06-15T01:40:53.228Z,13.97
2023-06-15T01:43:23.346Z,14.63
2023-06-15T01:45:55.722Z,14.43
2023-06-15T01:48:22.580Z,14.17
2023-06-15T01:50:50.581Z,15.10
2023-06-15T01:53:17.222Z,16.70
2023-06-15T01:55:43.879Z,15.47
2023-06-15T01:58:12.553Z,15.90
2023-06-15T02:00:39.043Z,16.03
2023-06-15T02:03:05.696Z,14.87
2023-06-15T02:05:33.390Z,15.30
2023-06-15T02:08:00.039Z,15.10
2023-06-15T02:10:26.686Z,16.57
2023-06-15T02:12:53.250Z,16.47
2023-06-15T02:15:20.297Z,17.53
2023-06-15T02:17:47.338Z,18.07
2023-06-15T02:20:14.175Z,17.37
2023-06-15T02:22:41.325Z,18.57
2023-06-15T02:25:09.254Z,19.63
2023-06-15T02:27:36.173Z,20.57
2023-06-15T02:30:03.355Z,19.23
2023-06-15T02:32:36.241Z,20.47
2023-06-15T02:35:07.487Z,19.63
2023-06-15T02:37:34.048Z,19.07
2023-06-15T02:40:01.070Z,19.93
2023-06-15T02:42:27.679Z,21.47
2023-06-15T02:44:54.189Z,22.60
2023-06-15T02:47:20.747Z,22.43
2023-06-15T02:49:47.442Z,23.20
2023-06-15T02:52:13.987Z,20.70
2023-06-15T02:54:40.703Z,22.37
2023-06-15T02:57:07.954Z,21.83
2023-06-15T02:59:35.135Z,24.30
2023-06-15T03:02:03.490Z,22.30
2023-06-15T03:04:30.071Z,24.90
2023-06-15T03:06:57.676Z,20.93
2023-06-15T03:09:24.947Z,19.93
2023-06-15T03:11:52.134Z,20.17
2023-06-15T03:14:22.141Z,21.93
2023-06-15T03:16:49.050Z,22.03
2023-06-15T03:19:19.064Z,23.53
2023-06-15T03:21:48.333Z,23.13
2023-06-15T03:24:15.167Z,23.97
2023-06-15T03:26:44.593Z,26.27
2023-06-15T03:29:12.049Z,25.97
2023-06-15T03:31:45.361Z,27.13
2023-06-15T03:34:11.916Z,28.77
2023-06-15T03:36:38.434Z,29.67
2023-06-15T03:39:05.296Z,30.67
2023-06-15T03:41:31.831Z,29.40
2023-06-15T03:43:58.341Z,29.27
2023-06-15T03:46:24.898Z,31.40
2023-06-15T03:48:51.398Z,35.50
2023-06-15T03:51:17.900Z,35.10
2023-06-15T03:53:45.142Z,37.27
2023-06-15T03:56:11.721Z,40.77
2023-06-15T03:58:38.286Z,40.13
2023-06-15T04:01:07.941Z,40.70
2023-06-15T04:03:37.473Z,40.37
2023-06-15T04:06:05.508Z,41.07
2023-06-15T04:08:33.279Z,35.43
2023-06-15T04:11:00.573Z,33.40
2023-06-15T04:13:27.237Z,31.17
2023-06-15T04:15:54.591Z,30.83
2023-06-15T04:18:22.273Z,29.37
2023-06-15T04:20:48.808Z,26.13
2023-06-15T04:23:15.402Z,22.97
2023-06-15T04:25:41.994Z,25.40
2023-06-15T04:28:11.735Z,25.07
2023-06-15T04:30:41.616Z,27.73
2023-06-15T04:33:14.003Z,30.53
2023-06-15T04:35:41.731Z,30.67
2023-06-15T04:38:08.796Z,30.27
2023-06-15T04:40:35.350Z,30.23
2023-06-15T04:43:04.245Z,33.37
2023-06-15T04:45:30.998Z,33.57
2023-06-15T04:47:57.567Z,36.03
2023-06-15T04:50:24.818Z,35.73
2023-06-15T04:52:51.543Z,36.43
2023-06-15T04:55:18.619Z,37.67
2023-06-15T04:57:45.548Z,38.20
2023-06-15T05:00:14.699Z,39.37
2023-06-15T05:02:41.402Z,39.80
2023-06-15T05:05:08.297Z,43.17
2023-06-15T05:07:34.872Z,41.50
2023-06-15T05:10:01.726Z,44.23
2023-06-15T05:12:28.220Z,44.30
2023-06-15T05:14:54.736Z,48.97
2023-06-15T05:17:21.558Z,50.10
2023-06-15T05:19:48.837Z,46.07
2023-06-15T05:22:15.723Z,48.97
2023-06-15T05:24:42.242Z,43.50
2023-06-15T05:27:09.704Z,41.53
2023-06-15T05:29:37.549Z,44.30
2023-06-15T05:32:04.397Z,47.27
2023-06-15T05:34:30.921Z,46.23
2023-06-15T05:36:58.525Z,48.27
2023-06-15T05:39:26.348Z,49.20
2023-06-15T05:41:52.930Z,52.67
2023-06-15T05:44:19.434Z,52.27
2023-06-15T05:46:46.215Z,54.20
2023-06-15T05:49:12.795Z,58.00
2023-06-15T05:51:39.333Z,57.60
2023-06-15T05:54:05.929Z,47.07
2023-06-15T05:56:32.509Z,55.70
2023-06-15T05:58:59.111Z,47.53
2023-06-15T06:01:25.777Z,46.27
2023-06-15T06:03:52.290Z,51.90
2023-06-15T06:06:18.986Z,54.27
2023-06-15T06:08:45.594Z,50.93
2023-06-15T06:11:12.116Z,49.37
2023-06-15T06:13:38.652Z,49.50
2023-06-15T06:16:05.613Z,46.93
2023-06-15T06:18:32.359Z,52.20
2023-06-15T06:20:58.971Z,48.03
2023-06-15T06:23:25.526Z,50.70
2023-06-15T06:25:52.114Z,50.60
2023-06-15T06:28:18.658Z,53.83
2023-06-15T06:30:45.171Z,50.47
2023-06-15T06:33:11.759Z,49.60
2023-06-15T06:35:38.369Z,47.83
2023-06-15T06:38:05.128Z,46.03
2023-06-15T06:40:32.145Z,44.00
2023-06-15T06:42:58.674Z,42.90
2023-06-15T06:45:27.497Z,42.87
2023-06-15T06:47:55.894Z,40.77
2023-06-15T06:50:22.431Z,39.37
2023-06-15T06:52:48.944Z,36.37
2023-06-15T06:55:15.879Z,35.70
2023-06-15T06:57:42.729Z,37.97
2023-06-15T07:00:11.783Z,31.07
2023-06-15T07:02:38.549Z,31.93
2023-06-15T07:05:05.433Z,33.03
2023-06-15T07:07:32.066Z,29.70
2023-06-15T07:09:58.671Z,29.77
2023-06-15T07:12:25.252Z,28.93
2023-06-15T07:14:52.134Z,25.90
2023-06-15T07:17:18.703Z,26.30
2023-06-15T07:19:45.263Z,30.13
2023-06-15T07:22:11.883Z,30.43
2023-06-15T07:24:38.599Z,29.07
2023-06-15T07:27:05.660Z,26.67
2023-06-15T07:29:32.200Z,28.93
2023-06-15T07:31:58.743Z,28.93
2023-06-15T07:34:25.598Z,28.93
2023-06-15T07:36:52.188Z,29.50
2023-06-15T07:39:18.942Z,30.37
2023-06-15T07:41:45.522Z,29.33
2023-06-15T07:44:13.611Z,32.03
2023-06-15T07:46:40.992Z,30.60
2023-06-15T07:49:08.287Z,32.70
2023-06-15T07:51:43.403Z,34.97
2023-06-15T07:54:14.788Z,35.20
2023-06-15T07:56:41.449Z,33.03
2023-06-15T07:59:08.207Z,32.90
2023-06-15T08:01:34.865Z,31.50
2023-06-15T08:04:01.776Z,30.90
2023-06-15T08:06:30.012Z,30.80
2023-06-15T08:08:56.512Z,28.10
2023-06-15T08:11:23.110Z,28.17
2023-06-15T08:13:49.740Z,31.07
2023-06-15T08:16:16.270Z,29.47
2023-06-15T08:18:42.818Z,30.43
2023-06-15T08:21:09.400Z,29.30
2023-06-15T08:23:35.979Z,31.90
2023-06-15T08:26:04.573Z,29.13
2023-06-15T08:28:38.141Z,34.10
2023-06-15T08:31:14.583Z,33.27
2023-06-15T08:33:41.186Z,30.73
2023-06-15T08:36:11.756Z,31.30
2023-06-15T08:38:38.393Z,28.87
2023-06-15T08:41:05.422Z,29.53
2023-06-15T08:43:32.336Z,30.30
2023-06-15T08:45:59.780Z,25.57
2023-06-15T08:48:27.765Z,31.77
2023-06-15T08:50:54.919Z,33.03
2023-06-15T08:53:23.589Z,32.50
2023-06-15T08:55:50.315Z,31.70
2023-06-15T08:58:17.037Z,32.67
2023-06-15T09:00:43.549Z,30.87
2023-06-15T09:03:11.245Z,26.67
2023-06-15T09:05:37.863Z,27.37
2023-06-15T09:08:05.080Z,28.10
2023-06-15T09:10:37.157Z,27.60
2023-06-15T09:13:04.117Z,28.20
2023-06-15T09:15:32.011Z,30.70
2023-06-15T09:18:03.621Z,26.67
2023-06-15T09:20:32.291Z,31.40
2023-06-15T09:23:03.367Z,33.93
2023-06-15T09:25:36.680Z,37.07
2023-06-15T09:28:08.432Z,36.57
2023-06-15T09:30:41.595Z,36.57
2023-06-15T09:33:16.281Z,37.03
2023-06-15T09:36:03.670Z,33.07
2023-06-15T09:38:33.936Z,35.73
2023-06-15T09:41:04.830Z,34.17
2023-06-15T09:43:35.589Z,34.03
2023-06-15T09:46:12.910Z,32.53
2023-06-15T09:48:40.334Z,32.93
2023-06-15T09:51:07.614Z,28.97
2023-06-15T09:53:34.805Z,27.03
2023-06-15T09:56:01.831Z,24.83
2023-06-15T09:58:28.647Z,28.47
2023-06-15T10:01:04.598Z,30.63
2023-06-15T10:03:34.242Z,32.13
2023-06-15T10:06:05.674Z,34.83
2023-06-15T10:08:34.935Z,33.13
2023-06-15T10:11:01.884Z,32.50
2023-06-15T10:13:52.548Z,34.97
2023-06-15T10:16:21.666Z,33.87
2023-06-15T10:18:51.833Z,31.63
2023-06-15T10:21:21.042Z,31.57
2023-06-15T10:23:51.144Z,30.73
2023-06-15T10:26:25.651Z,30.47
2023-06-15T10:29:01.483Z,31.50
2023-06-15T10:32:06.699Z,29.53
2023-06-15T10:34:46.163Z,36.50
2023-06-15T10:37:50.464Z,34.50
2023-06-15T10:40:31.401Z,31.70
2023-06-15T10:43:06.657Z,29.90
2023-06-15T10:45:59.557Z,32.47
2023-06-15T10:48:31.022Z,28.27
2023-06-15T10:51:08.834Z,30.20
2023-06-15T10:53:41.833Z,30.93
2023-06-15T10:56:22.046Z,26.60
2023-06-15T10:59:03.423Z,32.07
2023-06-15T11:01:33.315Z,33.10
2023-06-15T11:04:01.640Z,34.87
2023-06-15T11:06:33.952Z,29.57
2023-06-15T11:09:11.435Z,31.10
2023-06-15T11:11:39.297Z,30.50
2023-06-15T11:14:22.366Z,31.23
2023-06-15T11:17:05.261Z,34.70
2023-06-15T11:19:32.711Z,28.47
2023-06-15T11:22:03.325Z,31.10
2023-06-15T11:24:38.428Z,28.03
2023-06-15T11:27:13.774Z,28.50
2023-06-15T11:29:44.575Z,28.27
2023-06-15T11:32:11.603Z,29.67
2023-06-15T11:34:39.750Z,29.93
2023-06-15T11:37:08.033Z,34.67
2023-06-15T11:39:34.701Z,31.13
2023-06-15T11:42:02.130Z,29.00
2023-06-15T11:44:28.849Z,28.20
2023-06-15T11:47:00.625Z,29.77
2023-06-15T11:49:35.143Z,27.10
2023-06-15T11:52:01.754Z,34.43
2023-06-15T11:54:45.084Z,30.20
2023-06-15T11:57:17.036Z,29.90
2023-06-15T11:59:43.598Z,33.93
2023-06-15T12:02:12.061Z,29.80
2023-06-15T12:04:38.970Z,51.57
2023-06-15T12:07:06.428Z,56.77
2023-06-15T12:09:33.329Z,33.60
2023-06-15T12:11:59.875Z,34.30
2023-06-15T12:14:26.381Z,32.33
2023-06-15T12:16:53.960Z,39.20
2023-06-15T12:19:21.813Z,35.53
2023-06-15T12:21:48.994Z,30.27
2023-06-15T12:24:21.264Z,35.70
2023-06-15T12:26:58.713Z,35.63
2023-06-15T12:29:26.427Z,34.90
2023-06-15T12:31:57.054Z,43.23
2023-06-15T12:34:30.257Z,37.73
2023-06-15T12:36:57.011Z,35.47
2023-06-15T12:39:31.281Z,52.50
2023-06-15T12:42:02.543Z,28.47
2023-06-15T12:44:31.142Z,40.47
2023-06-15T12:46:57.718Z,30.20
2023-06-15T12:49:24.181Z,50.03
2023-06-15T12:51:52.094Z,30.00
2023-06-15T12:54:19.788Z,53.80
2023-06-15T12:56:46.563Z,42.90
2023-06-15T12:59:13.211Z,36.37
2023-06-15T13:01:39.831Z,38.23
2023-06-15T13:04:07.156Z,69.53
2023-06-15T13:06:34.274Z,45.80
2023-06-15T13:09:00.805Z,36.77
2023-06-15T13:11:29.208Z,55.13
2023-06-15T13:13:55.785Z,42.10
2023-06-15T13:16:22.430Z,37.33
2023-06-15T13:18:57.132Z,36.93
2023-06-15T13:21:23.808Z,35.53
2023-06-15T13:23:53.436Z,39.00
2023-06-15T13:26:20.304Z,36.50
2023-06-15T13:28:46.823Z,34.80
2023-06-15T13:31:13.778Z,51.40
2023-06-15T13:33:41.340Z,50.97
2023-06-15T13:36:07.985Z,50.97
2023-06-15T13:38:34.505Z,37.53
2023-06-15T13:41:01.240Z,36.13
2023-06-15T13:43:27.859Z,36.03
2023-06-15T13:45:54.487Z,33.73
2023-06-15T13:48:21.108Z,37.87
2023-06-15T13:50:53.109Z,32.07
2023-06-15T13:53:19.798Z,33.93
2023-06-15T13:55:46.832Z,32.30
2023-06-15T13:58:13.527Z,34.17
2023-06-15T14:00:40.337Z,32.43
2023-06-15T14:03:07.800Z,29.40
2023-06-15T14:05:37.046Z,34.17
2023-06-15T14:08:03.936Z,31.40
2023-06-15T14:10:33.681Z,35.03
2023-06-15T14:13:03.209Z,35.77
2023-06-15T14:15:32.238Z,30.77
2023-06-15T14:17:59.518Z,35.47
2023-06-15T14:20:26.384Z,31.47
2023-06-15T14:22:56.307Z,36.77
2023-06-15T14:25:25.129Z,38.77
2023-06-15T14:27:51.787Z,31.73
2023-06-15T14:30:18.687Z,38.07
2023-06-15T14:32:45.922Z,36.37
2023-06-15T14:35:12.780Z,30.33
2023-06-15T14:37:39.427Z,36.83
2023-06-15T14:40:06.400Z,36.23
2023-06-15T14:42:47.992Z,32.47
2023-06-15T14:45:15.579Z,33.23
2023-06-15T14:47:47.502Z,62.13
2023-06-15T14:50:14.625Z,41.77
2023-06-15T14:52:41.802Z,33.83
2023-06-15T14:55:08.748Z,38.37
2023-06-15T14:57:35.570Z,55.00
2023-06-15T15:00:02.294Z,96.37
2023-06-15T15:02:41.664Z,41.33
2023-06-15T15:05:11.872Z,36.40
2023-06-15T15:07:43.552Z,40.77
2023-06-15T15:10:16.565Z,34.43
2023-06-15T15:12:49.197Z,32.77
2023-06-15T15:15:18.978Z,37.77
2023-06-15T15:17:45.545Z,39.90
2023-06-15T15:20:12.230Z,39.23
2023-06-15T15:22:40.621Z,27.43
2023-06-15T15:25:07.464Z,32.73
2023-06-15T15:27:33.986Z,39.57
2023-06-15T15:30:00.576Z,28.57
2023-06-15T15:32:27.136Z,29.57
2023-06-15T15:34:53.720Z,32.03
2023-06-15T15:37:20.379Z,43.10
2023-06-15T15:39:46.922Z,29.63
2023-06-15T15:42:14.476Z,36.87
2023-06-15T15:44:41.178Z,33.30
2023-06-15T15:47:07.844Z,54.43
2023-06-15T15:49:34.534Z,34.00
2023-06-15T15:52:01.034Z,37.27
2023-06-15T15:54:27.571Z,34.90
2023-06-15T15:56:54.213Z,32.73
2023-06-15T15:59:22.856Z,33.67
2023-06-15T16:01:50.144Z,33.27
2023-06-15T16:04:17.248Z,34.63
2023-06-15T16:06:45.879Z,36.73
2023-06-15T16:09:12.590Z,31.90
2023-06-15T16:11:39.122Z,32.03
2023-06-15T16:14:05.957Z,37.83
2023-06-15T16:16:32.738Z,38.10
2023-06-15T16:18:59.293Z,37.83
2023-06-15T16:21:26.083Z,38.07
2023-06-15T16:23:52.757Z,32.33
2023-06-15T16:26:19.542Z,56.03
2023-06-15T16:28:47.932Z,35.47
2023-06-15T16:31:14.584Z,36.83
2023-06-15T16:33:41.119Z,33.87
2023-06-15T16:36:07.799Z,34.13
2023-06-15T16:38:34.302Z,36.80
2023-06-15T16:41:00.843Z,35.30
2023-06-15T16:43:27.321Z,32.63
2023-06-15T16:45:53.917Z,33.80
2023-06-15T16:48:20.525Z,34.43
2023-06-15T16:50:47.106Z,36.10
2023-06-15T16:53:14.106Z,36.70
2023-06-15T16:55:40.721Z,36.60
2023-06-15T16:58:07.233Z,35.43
2023-06-15T17:00:33.982Z,33.53
2023-06-15T17:03:00.703Z,34.90
2023-06-15T17:05:27.353Z,33.50
2023-06-15T17:07:53.832Z,33.53
2023-06-15T17:10:20.653Z,36.33
2023-06-15T17:12:47.429Z,33.03
2023-06-15T17:15:13.982Z,31.53
2023-06-15T17:17:41.745Z,32.50
2023-06-15T17:20:09.490Z,34.03
2023-06-15T17:22:38.458Z,34.30
2023-06-15T17:25:05.525Z,30.90
2023-06-15T17:27:32.021Z,29.53
2023-06-15T17:29:58.566Z,31.97
2023-06-15T17:32:26.085Z,31.67
2023-06-15T17:34:52.648Z,29.00
2023-06-15T17:37:19.192Z,30.83
2023-06-15T17:39:45.744Z,30.20
2023-06-15T17:42:13.094Z,29.00
2023-06-15T17:44:39.730Z,31.27
2023-06-15T17:47:06.345Z,29.67
2023-06-15T17:49:32.864Z,28.57
2023-06-15T17:51:59.658Z,31.57
2023-06-15T17:54:26.168Z,29.50
2023-06-15T17:56:52.676Z,30.17
2023-06-15T17:59:19.268Z,29.37
2023-06-15T18:01:45.878Z,31.10
2023-06-15T18:04:13.245Z,31.13
2023-06-15T18:06:40.443Z,29.03
2023-06-15T18:09:07.810Z,25.47
2023-06-15T18:11:34.811Z,28.80
2023-06-15T18:14:01.319Z,29.77
2023-06-15T18:16:29.367Z,31.30
2023-06-15T18:18:56.037Z,29.90
2023-06-15T18:21:23.102Z,29.37
2023-06-15T18:23:49.652Z,30.27
2023-06-15T18:26:16.710Z,29.43
2023-06-15T18:28:43.192Z,28.87
2023-06-15T18:31:09.687Z,31.73
2023-06-15T18:33:36.220Z,28.13
2023-06-15T18:36:03.055Z,28.20
2023-06-15T18:38:29.887Z,30.67
2023-06-15T18:40:56.633Z,30.70
2023-06-15T18:43:23.157Z,25.30
2023-06-15T18:45:49.776Z,30.13
2023-06-15T18:48:16.678Z,27.30
2023-06-15T18:50:43.333Z,28.27
2023-06-15T18:53:09.818Z,29.87
2023-06-15T18:55:36.637Z,27.33
2023-06-15T18:58:04.772Z,24.50
2023-06-15T19:00:31.398Z,29.27
2023-06-15T19:02:58.027Z,28.27
2023-06-15T19:05:24.608Z,26.63
2023-06-15T19:07:51.120Z,28.47
2023-06-15T19:10:17.722Z,26.90
2023-06-15T19:12:44.307Z,23.23
2023-06-15T19:15:12.842Z,25.43
2023-06-15T19:17:39.899Z,24.33
2023-06-15T19:20:07.474Z,24.50
2023-06-15T19:22:33.993Z,24.00
2023-06-15T19:25:00.516Z,25.67
2023-06-15T19:27:27.105Z,23.57
2023-06-15T19:29:54.068Z,23.60
2023-06-15T19:32:20.718Z,24.30
2023-06-15T19:34:47.198Z,22.97
2023-06-15T19:37:13.706Z,22.10
2023-06-15T19:39:40.209Z,22.87
2023-06-15T19:42:06.787Z,22.47
2023-06-15T19:44:33.338Z,24.10
2023-06-15T19:46:59.923Z,20.93
2023-06-15T19:49:29.872Z,20.97
2023-06-15T19:51:57.906Z,20.57
2023-06-15T19:54:24.701Z,21.17
2023-06-15T19:56:51.332Z,24.60
2023-06-15T19:59:20.149Z,24.37
2023-06-15T20:01:47.042Z,21.83
2023-06-15T20:04:13.728Z,21.07
2023-06-15T20:06:40.319Z,26.47
2023-06-15T20:09:06.873Z,26.83
2023-06-15T20:11:33.458Z,23.80
2023-06-15T20:14:00.528Z,23.90
2023-06-15T20:16:27.150Z,23.73
2023-06-15T20:18:54.442Z,23.57
2023-06-15T20:21:28.992Z,22.73
2023-06-15T20:23:56.118Z,21.87
2023-06-15T20:26:24.212Z,23.87
2023-06-15T20:28:50.864Z,22.53
2023-06-15T20:31:17.493Z,22.60
2023-06-15T20:33:45.511Z,22.37
2023-06-15T20:36:12.871Z,20.47
2023-06-15T20:38:39.904Z,19.73
2023-06-15T20:41:06.446Z,22.93
2023-06-15T20:43:33.161Z,20.93
2023-06-15T20:46:01.244Z,20.10
2023-06-15T20:48:32.991Z,20.13
2023-06-15T20:51:01.552Z,19.93
2023-06-15T20:53:28.342Z,21.10
2023-06-15T20:55:54.873Z,19.63
2023-06-15T21:00:48.620Z,19.43
2023-06-15T21:03:15.366Z,19.23
2023-06-15T21:05:42.027Z,19.70
2023-06-15T21:08:08.637Z,20.07
2023-06-15T21:10:35.200Z,21.37
2023-06-15T21:13:02.012Z,20.50
2023-06-15T21:15:28.725Z,18.60
2023-06-15T21:17:55.791Z,19.90
2023-06-15T21:20:22.769Z,19.63
2023-06-15T21:22:49.408Z,18.60
2023-06-15T21:25:15.944Z,20.27
2023-06-15T21:27:42.461Z,20.03
2023-06-15T21:30:09.316Z,18.63
2023-06-15T21:32:35.974Z,18.57
2023-06-15T21:35:04.416Z,20.03
2023-06-15T21:37:31.096Z,19.90
2023-06-15T21:39:57.644Z,19.77
2023-06-15T21:42:26.382Z,19.40
2023-06-15T21:44:53.077Z,21.03
2023-06-15T21:47:19.889Z,21.33
2023-06-15T21:49:46.549Z,21.40
2023-06-15T21:52:16.204Z,20.30
2023-06-15T21:54:43.666Z,21.30
2023-06-15T21:57:12.807Z,20.53
2023-06-15T21:59:39.523Z,21.60
2023-06-15T22:02:06.368Z,20.17
2023-06-15T22:04:33.090Z,21.27
2023-06-15T22:06:59.613Z,20.53
2023-06-15T22:09:26.197Z,21.47
2023-06-15T22:11:52.845Z,20.33
2023-06-15T22:14:19.718Z,21.23
2023-06-15T22:16:47.762Z,22.07
2023-06-15T22:19:14.701Z,21.27
2023-06-15T22:21:41.380Z,22.27
2023-06-15T22:24:09.558Z,20.20
2023-06-15T22:26:48.200Z,21.97
2023-06-15T22:29:18.889Z,28.17
2023-06-15T22:31:50.190Z,21.63
2023-06-15T22:34:17.271Z,21.37
2023-06-15T22:36:44.526Z,20.37
2023-06-15T22:39:11.649Z,22.13
2023-06-15T22:41:39.442Z,20.03
2023-06-15T22:44:06.483Z,23.87
2023-06-15T22:46:33.073Z,21.03
2023-06-15T22:48:59.908Z,23.40
2023-06-15T22:51:31.303Z,25.67
2023-06-15T22:53:59.078Z,24.10
2023-06-15T22:56:27.042Z,26.53
2023-06-15T22:58:54.801Z,29.90
2023-06-15T23:01:21.584Z,27.37
2023-06-15T23:03:48.262Z,32.00
2023-06-15T23:06:20.551Z,31.03
2023-06-15T23:08:49.016Z,27.90
2023-06-15T23:11:18.407Z,28.20
2023-06-15T23:13:51.890Z,31.90
2023-06-15T23:16:18.881Z,29.83
2023-06-15T23:18:46.194Z,31.57
2023-06-15T23:21:14.417Z,28.10
2023-06-15T23:23:41.531Z,31.23
2023-06-15T23:26:09.929Z,30.97
2023-06-15T23:28:40.649Z,36.57
2023-06-15T23:31:07.574Z,32.40
2023-06-15T23:33:36.190Z,34.40
2023-06-15T23:36:03.247Z,35.77
2023-06-15T23:38:29.806Z,36.00
2023-06-15T23:40:56.493Z,32.20
2023-06-15T23:43:23.064Z,32.77
2023-06-15T23:45:50.881Z,37.67
2023-06-15T23:48:17.476Z,34.17
2023-06-15T23:50:43.984Z,34.37
2023-06-15T23:53:12.858Z,35.83
2023-06-15T23:55:43.395Z,34.07
2023-06-15T23:58:10.922Z,31.20
